»·PEaware :: DAL2189 KSLC-KPDX

DAL2189 :: KSLC-KPDX

FLIGHT INFORMATION

Flight Status: Arrived
Operator:
Delta Air Lines
More flights by this operator :: More flights under this callsign
Pilot: Joe P. (13940)
Aircraft: MCDONNELL-DOUGLAS MD-82
(MD82)
More flights by this aircraft type
Origin: KSLC Salt Lake City Intl
United States
Destination: KPDX Portland Intl
United States
More flights between these airports :: More routes between these airports
Route: TWF4 TWF BOI DCT BKE JOTBA HHOOD4
File this flight plan on PilotEdge
Remarks: SEL / ABCD KSEA -PBN / B3B4B5D3D4 DOF / 180429 REG / N904DL EET / KZSE0054
Altitude:
(Current/Filed)
360ft
Speed:
(Current/Filed)
443kts
Departed: 29-Apr-18 08:45 AM
Arrived: 29-Apr-18 10:19 AM
Distance/Time
Traveled:
546nm/1:33
Distance/Time
To Go:
Arrived

Flight Plot

Page will automatically refresh every two minutes.

Flight plan parsing failed; only flown route is shown


Map Options




Map Legend


Flown Route
Filed Route
Departure Airport
Arrival Airport
Navaid (VOR, NDB)
Fix

Horizontal Profiles

Position Reports

Time Latitude Longitude Heading Altitude Ground
Speed
29-Apr-18 07:20 40.785586 -111.978056 231 4236ft 0kts
29-Apr-18 07:21 40.785586 -111.978056 231 4236ft 0kts
29-Apr-18 07:22 40.785586 -111.978056 231 4236ft 0kts
29-Apr-18 07:23 40.785586 -111.978056 231 4236ft 0kts
29-Apr-18 07:24 40.785586 -111.978056 231 4236ft 0kts
29-Apr-18 07:25 40.785586 -111.978056 231 4236ft 0kts
29-Apr-18 07:26 40.785586 -111.978056 231 4236ft 0kts
29-Apr-18 07:27 40.785586 -111.978056 231 4236ft 0kts
29-Apr-18 07:28 40.785586 -111.978056 231 4236ft 0kts
29-Apr-18 07:29 40.785586 -111.978056 231 4236ft 0kts
29-Apr-18 07:30 40.785586 -111.978056 231 4236ft 0kts
29-Apr-18 07:31 40.785586 -111.978056 231 4236ft 0kts
29-Apr-18 07:32 40.785586 -111.978056 231 4236ft 0kts
29-Apr-18 07:33 40.785586 -111.978056 231 4236ft 0kts
29-Apr-18 07:34 40.785586 -111.978056 231 4236ft 0kts
29-Apr-18 07:35 40.785586 -111.978056 231 4236ft 0kts
29-Apr-18 07:36 40.785586 -111.978056 231 4236ft 0kts
29-Apr-18 07:37 40.785586 -111.978056 231 4236ft 0kts
29-Apr-18 07:38 40.785586 -111.978056 231 4236ft 0kts
29-Apr-18 07:39 40.785586 -111.978056 231 4236ft 0kts
29-Apr-18 07:40 40.785586 -111.978056 231 4236ft 0kts
29-Apr-18 07:41 40.785586 -111.978056 231 4236ft 0kts
29-Apr-18 07:42 40.785586 -111.978056 231 4236ft 0kts
29-Apr-18 07:43 40.785586 -111.978056 231 4236ft 0kts
29-Apr-18 07:44 40.785586 -111.978056 231 4236ft 0kts
29-Apr-18 07:45 40.785586 -111.978056 231 4236ft 0kts
29-Apr-18 07:46 40.785586 -111.978056 231 4236ft 0kts
29-Apr-18 07:47 40.785586 -111.978056 231 4236ft 0kts
29-Apr-18 07:48 40.785586 -111.978056 231 4236ft 0kts
29-Apr-18 07:49 40.785586 -111.978056 231 4236ft 0kts
29-Apr-18 07:50 40.785586 -111.978056 231 4236ft 0kts
29-Apr-18 07:51 40.785586 -111.978056 231 4236ft 0kts
29-Apr-18 07:52 40.785586 -111.978056 231 4236ft 0kts
29-Apr-18 07:53 40.785586 -111.978056 231 4236ft 0kts
29-Apr-18 07:54 40.785586 -111.978056 231 4236ft 0kts
29-Apr-18 07:55 40.785586 -111.978056 231 4236ft 0kts
29-Apr-18 07:56 40.785586 -111.978056 231 4236ft 0kts
29-Apr-18 07:57 40.785586 -111.978056 231 4236ft 0kts
29-Apr-18 07:58 40.785586 -111.978056 231 4236ft 0kts
29-Apr-18 07:59 40.785586 -111.978056 231 4236ft 0kts
29-Apr-18 08:00 40.785586 -111.978056 231 4236ft 0kts
29-Apr-18 08:01 40.785586 -111.978056 231 4236ft 0kts
29-Apr-18 08:02 40.785586 -111.978056 231 4236ft 0kts
29-Apr-18 08:03 40.785586 -111.978056 231 4236ft 0kts
29-Apr-18 08:04 40.785586 -111.978056 231 4236ft 0kts
29-Apr-18 08:05 40.785586 -111.978056 231 4236ft 0kts
29-Apr-18 08:06 40.785586 -111.978056 231 4236ft 0kts
29-Apr-18 08:07 40.785586 -111.978056 231 4236ft 0kts
29-Apr-18 08:08 40.785586 -111.978056 231 4236ft 0kts
29-Apr-18 08:09 40.785586 -111.978056 231 4236ft 0kts
29-Apr-18 08:10 40.785586 -111.978056 231 4236ft 0kts
29-Apr-18 08:11 40.785586 -111.978056 231 4236ft 0kts
29-Apr-18 08:12 40.785586 -111.978056 231 4236ft 0kts
29-Apr-18 08:13 40.785586 -111.978056 231 4236ft 0kts
29-Apr-18 08:14 40.785586 -111.978056 231 4236ft 0kts
29-Apr-18 08:15 40.785586 -111.978056 231 4236ft 0kts
29-Apr-18 08:16 40.785586 -111.978056 231 4236ft 0kts
29-Apr-18 08:17 40.785586 -111.978056 231 4236ft 0kts
29-Apr-18 08:18 40.785586 -111.978056 231 4236ft 0kts
29-Apr-18 08:19 40.785586 -111.978056 231 4236ft 0kts
29-Apr-18 08:20 40.785586 -111.978056 231 4236ft 0kts
29-Apr-18 08:21 40.785586 -111.978056 231 4236ft 0kts
29-Apr-18 08:22 40.785586 -111.978056 231 4236ft 0kts
29-Apr-18 08:23 40.785586 -111.978056 231 4236ft 0kts
29-Apr-18 08:24 40.785586 -111.978056 231 4236ft 0kts
29-Apr-18 08:25 40.785586 -111.978056 231 4236ft 0kts
29-Apr-18 08:26 40.785586 -111.978056 231 4236ft 0kts
29-Apr-18 08:27 40.785721 -111.977807 240 4236ft 2kts
29-Apr-18 08:28 40.785857 -111.976776 281 4236ft 2kts
29-Apr-18 08:29 40.785745 -111.976352 296 4236ft 0kts
29-Apr-18 08:30 40.785745 -111.976352 296 4236ft 0kts
29-Apr-18 08:31 40.785745 -111.976352 296 4236ft 0kts
29-Apr-18 08:32 40.785745 -111.976352 296 4236ft 0kts
29-Apr-18 08:33 40.785745 -111.976352 296 4236ft 0kts
29-Apr-18 08:34 40.785745 -111.976352 296 4236ft 0kts
29-Apr-18 08:35 40.785745 -111.976352 296 4236ft 0kts
29-Apr-18 08:36 40.788072 -111.977263 359 4236ft 18kts
29-Apr-18 08:37 40.794169 -111.977693 355 4236ft 26kts
29-Apr-18 08:38 40.800186 -111.978307 355 4236ft 13kts
29-Apr-18 08:39 40.805380 -111.979004 354 4236ft 23kts
29-Apr-18 08:40 40.807498 -111.978671 66 4236ft 0kts
29-Apr-18 08:41 40.807500 -111.978666 66 4236ft 0kts
29-Apr-18 08:42 40.807002 -111.976799 172 4236ft 6kts
29-Apr-18 08:43 40.806572 -111.976746 174 4236ft 22kts
29-Apr-18 08:44 40.773359 -111.973064 175 4350ft 199kts
29-Apr-18 08:45 40.726320 -111.938145 145 6484ft 216kts
29-Apr-18 08:46 40.668964 -111.960493 250 7611ft 276kts
29-Apr-18 08:47 40.704160 -112.040363 332 9816ft 287kts
29-Apr-18 08:48 40.766747 -112.099867 292 11382ft 287kts
29-Apr-18 08:49 40.794570 -112.199414 288 13394ft 293kts
29-Apr-18 08:50 40.830058 -112.297844 305 15395ft 305kts
29-Apr-18 08:51 40.906194 -112.354365 330 17411ft 320kts
29-Apr-18 08:52 40.989583 -112.396106 335 19404ft 320kts
29-Apr-18 08:53 41.075306 -112.432669 335 21407ft 324kts
29-Apr-18 08:54 41.151356 -112.491775 318 23065ft 326kts
29-Apr-18 08:55 41.229212 -112.569790 315 23538ft 374kts
29-Apr-18 08:56 41.311771 -112.664723 307 24365ft 399kts
29-Apr-18 08:57 41.385427 -112.776582 305 25695ft 406kts
29-Apr-18 08:58 41.460873 -112.890030 305 26887ft 413kts
29-Apr-18 08:59 41.536948 -113.006454 305 27982ft 418kts
29-Apr-18 09:00 41.613792 -113.124497 305 28924ft 424kts
29-Apr-18 09:01 41.691727 -113.244534 305 29842ft 427kts
29-Apr-18 09:02 41.767081 -113.361355 305 31730ft 402kts
29-Apr-18 09:03 41.837683 -113.470002 304 33705ft 371kts
29-Apr-18 09:04 41.903125 -113.571915 304 34908ft 359kts
29-Apr-18 09:05 41.968429 -113.674953 304 35411ft 365kts
29-Apr-18 09:06 42.034713 -113.779359 304 35941ft 370kts
29-Apr-18 09:07 42.103166 -113.886819 304 35951ft 387kts
29-Apr-18 09:08 42.174405 -113.999252 304 35951ft 402kts
29-Apr-18 09:09 42.248365 -114.116110 304 35955ft 415kts
29-Apr-18 09:10 42.323965 -114.236433 304 35955ft 425kts
29-Apr-18 09:11 42.399924 -114.358004 304 35957ft 424kts
29-Apr-18 09:12 42.475885 -114.480079 305 35958ft 423kts
29-Apr-18 09:13 42.553179 -114.601560 306 35958ft 425kts
29-Apr-18 09:14 42.631794 -114.722944 305 35958ft 428kts
29-Apr-18 09:15 42.709879 -114.844452 306 35959ft 429kts
29-Apr-18 09:16 42.787940 -114.966581 306 35953ft 428kts
29-Apr-18 09:17 42.866212 -115.089406 306 35951ft 428kts
29-Apr-18 09:18 42.944194 -115.212366 306 35951ft 429kts
29-Apr-18 09:19 43.022427 -115.336065 306 35952ft 430kts
29-Apr-18 09:20 43.100352 -115.460006 306 35958ft 431kts
29-Apr-18 09:21 43.178367 -115.584387 306 35959ft 432kts
29-Apr-18 09:22 43.256673 -115.709926 306 35960ft 433kts
29-Apr-18 09:24 43.334643 -115.835733 305 35963ft 433kts
29-Apr-18 09:25 43.412584 -115.962632 306 35969ft 434kts
29-Apr-18 09:26 43.491237 -116.089999 306 35975ft 435kts
29-Apr-18 09:26 43.556823 -116.195402 310 35978ft 438kts
29-Apr-18 09:27 43.647079 -116.308609 316 35979ft 440kts
29-Apr-18 09:28 43.739819 -116.419691 314 35979ft 439kts
29-Apr-18 09:29 43.830852 -116.532410 314 35983ft 438kts
29-Apr-18 09:30 43.922112 -116.645132 314 35988ft 438kts
29-Apr-18 09:31 44.012996 -116.757380 315 35993ft 438kts
29-Apr-18 09:32 44.104441 -116.870846 315 35996ft 441kts
29-Apr-18 09:34 44.211007 -117.004023 315 35995ft 440kts
29-Apr-18 09:34 44.286637 -117.098802 315 35993ft 440kts
29-Apr-18 09:35 44.377278 -117.212953 315 35990ft 438kts
29-Apr-18 09:36 44.467964 -117.327758 315 35991ft 438kts
29-Apr-18 09:37 44.558144 -117.442275 315 35994ft 438kts
29-Apr-18 09:38 44.648411 -117.557397 315 35995ft 439kts
29-Apr-18 09:39 44.738246 -117.672758 315 35997ft 438kts
29-Apr-18 09:40 44.824221 -117.792882 297 35998ft 433kts
29-Apr-18 09:41 44.863986 -117.952210 279 36002ft 429kts
29-Apr-18 09:42 44.882180 -118.118170 278 36005ft 427kts
29-Apr-18 09:43 44.903579 -118.283336 279 36011ft 429kts
29-Apr-18 09:44 44.925520 -118.449150 279 36015ft 429kts
29-Apr-18 09:45 44.946036 -118.614802 279 36012ft 429kts
29-Apr-18 09:46 44.966933 -118.781157 279 36013ft 429kts
29-Apr-18 09:47 44.987719 -118.947105 279 36016ft 429kts
29-Apr-18 09:48 45.007787 -119.113209 278 36025ft 430kts
29-Apr-18 09:49 45.027741 -119.279565 279 36025ft 429kts
29-Apr-18 09:50 45.047635 -119.445672 279 36032ft 428kts
29-Apr-18 09:51 45.067387 -119.611788 278 36034ft 429kts
29-Apr-18 09:52 45.086469 -119.778990 278 36036ft 429kts
29-Apr-18 09:53 45.105353 -119.945626 278 36039ft 429kts
29-Apr-18 09:54 45.124819 -120.112544 279 36043ft 428kts
29-Apr-18 09:55 45.140568 -120.280237 278 35596ft 432kts
29-Apr-18 09:56 45.160138 -120.447722 280 33135ft 431kts
29-Apr-18 09:57 45.199051 -120.608323 299 30640ft 432kts
29-Apr-18 09:58 45.259901 -120.755816 299 27965ft 436kts
29-Apr-18 09:59 45.316747 -120.906798 298 25235ft 424kts
29-Apr-18 10:00 45.371591 -121.049944 298 22693ft 399kts
29-Apr-18 10:01 45.422678 -121.185764 294 20194ft 380kts
29-Apr-18 10:02 45.456304 -121.329103 284 16666ft 386kts
29-Apr-18 10:03 45.481848 -121.464183 285 15625ft 322kts
29-Apr-18 10:04 45.505605 -121.585086 285 13588ft 309kts
29-Apr-18 10:05 45.528413 -121.700797 284 11773ft 296kts
29-Apr-18 10:06 45.536934 -121.816374 272 10031ft 267kts
29-Apr-18 10:07 45.539498 -121.918487 272 8406ft 259kts
29-Apr-18 10:08 45.542252 -122.011428 274 7013ft 211kts
29-Apr-18 10:09 45.524581 -122.084425 235 6391ft 186kts
29-Apr-18 10:10 45.491809 -122.147881 235 5943ft 197kts
29-Apr-18 10:11 45.471166 -122.216623 278 5026ft 195kts
29-Apr-18 10:12 45.481372 -122.294270 278 3838ft 203kts
29-Apr-18 10:13 45.504078 -122.358611 287 3168ft 172kts
29-Apr-18 10:14 45.523690 -122.415189 299 2354ft 143kts
29-Apr-18 10:15 45.543499 -122.463869 296 1657ft 141kts
29-Apr-18 10:16 45.562547 -122.512696 296 944ft 140kts
29-Apr-18 10:17 45.581632 -122.561662 298 182ft 142kts
29-Apr-18 10:18 45.591990 -122.589183 281 27ft 16kts
29-Apr-18 10:19 45.592042 -122.589858 273 27ft 0kts
29-Apr-18 10:20 45.592106 -122.590773 276 27ft 8kts
29-Apr-18 10:21 45.591597 -122.593910 209 27ft 5kts
29-Apr-18 10:22 45.591303 -122.594114 203 27ft 0kts
29-Apr-18 10:23 45.591302 -122.594114 203 27ft 0kts
29-Apr-18 10:24 45.591302 -122.594114 203 27ft 0kts
29-Apr-18 10:25 45.591302 -122.594114 203 27ft 0kts
29-Apr-18 10:26 45.591302 -122.594114 203 27ft 0kts
29-Apr-18 10:27 45.591302 -122.594114 203 27ft 0kts
29-Apr-18 10:28 45.591302 -122.594114 203 27ft 0kts

Navigation Log

Ident Type
Flight plan parsing failed, navigation log unavailable